Time;durP1;ratioP1;P1;durP2;ratioP2;P2;SDS_P1;SDS_P2;PMS_P1;PMS_P2;Temp;Humidity;BMP_temperature;BMP_pressure;BME280_temperature;BME280_humidity;BME280_pressure;Samples;Min_cycle;Max_cycle;Signal;HPM_P1;HPM_P2
2021/09/18 00:02:09;;;;;;;19.90;17.80;;;;;;;;;;5135470;28;20725;-55
2021/09/18 00:04:36;;;;;;;20.27;18.23;;;;;;;;;;5136697;28;20447;-58
2021/09/18 00:07:04;;;;;;;22.37;17.07;;;;;;;;;;5136576;28;20450;-58
2021/09/18 00:09:32;;;;;;;30.47;20.97;;;;;;;;;;5136433;28;20446;-56
2021/09/18 00:12:00;;;;;;;27.47;23.13;;;;;;;;;;5136394;28;20446;-55
2021/09/18 00:14:44;;;;;;;29.27;21.47;;;;;;;;;;5136446;28;20462;-60
2021/09/18 00:17:12;;;;;;;22.30;17.80;;;;;;;;;;5136548;28;20472;-54
2021/09/18 00:19:39;;;;;;;19.23;16.70;;;;;;;;;;5136587;28;20500;-62
2021/09/18 00:22:26;;;;;;;20.40;18.20;;;;;;;;;;5136359;28;20492;-50
2021/09/18 00:24:55;;;;;;;21.83;18.10;;;;;;;;;;5135943;28;20454;-52
2021/09/18 00:27:24;;;;;;;20.70;18.60;;;;;;;;;;5136413;28;20427;-58
2021/09/18 00:32:55;;;;;;;19.53;17.40;;;;;;;;;;5136539;28;20481;-62
2021/09/18 00:35:22;;;;;;;21.27;17.93;;;;;;;;;;5136706;28;20469;-53
2021/09/18 00:38:02;;;;;;;21.57;17.70;;;;;;;;;;5136711;28;20458;-56
2021/09/18 00:40:30;;;;;;;20.50;18.30;;;;;;;;;;5136527;28;20516;-57
2021/09/18 00:42:59;;;;;;;22.03;17.97;;;;;;;;;;5136467;28;20474;-57
2021/09/18 00:45:46;;;;;;;20.40;17.80;;;;;;;;;;5136116;28;20447;-52
2021/09/18 00:48:13;;;;;;;19.97;17.47;;;;;;;;;;5131890;28;20482;-62
2021/09/18 00:50:40;;;;;;;20.37;17.90;;;;;;;;;;5134177;28;20472;-57
2021/09/18 00:53:40;;;;;;;20.50;17.27;;;;;;;;;;5136298;28;20454;-58
2021/09/18 00:56:08;;;;;;;19.87;17.17;;;;;;;;;;5132884;28;20466;-60
2021/09/18 00:58:38;;;;;;;20.10;16.67;;;;;;;;;;5138422;28;20507;-50
2021/09/18 01:01:05;;;;;;;19.37;16.97;;;;;;;;;;5132815;28;20546;-55
2021/09/18 01:03:33;;;;;;;18.27;16.33;;;;;;;;;;5139819;28;20434;-54
2021/09/18 01:06:00;;;;;;;20.23;16.80;;;;;;;;;;5139874;28;20441;-60
2021/09/18 01:08:33;;;;;;;19.43;17.27;;;;;;;;;;5120557;28;20462;-59
2021/09/18 01:11:01;;;;;;;27.67;17.93;;;;;;;;;;5119377;28;20472;-59
2021/09/18 01:13:28;;;;;;;19.87;16.70;;;;;;;;;;5119503;28;20463;-49
2021/09/18 01:16:03;;;;;;;19.67;16.27;;;;;;;;;;5130114;28;20446;-58
2021/09/18 01:18:31;;;;;;;22.90;17.00;;;;;;;;;;5139588;28;20449;-59
2021/09/18 01:20:58;;;;;;;19.03;16.90;;;;;;;;;;5139905;28;20492;-57
2021/09/18 01:23:34;;;;;;;20.80;18.30;;;;;;;;;;5139558;28;20478;-58
2021/09/18 01:26:03;;;;;;;20.73;16.93;;;;;;;;;;5129777;28;20508;-54
2021/09/18 01:28:30;;;;;;;20.40;17.80;;;;;;;;;;5124990;28;20458;-55
2021/09/18 01:31:27;;;;;;;20.13;18.03;;;;;;;;;;5139318;28;20446;-54
2021/09/18 01:33:55;;;;;;;20.13;17.57;;;;;;;;;;5139645;28;20459;-53
2021/09/18 01:36:22;;;;;;;19.63;17.57;;;;;;;;;;5139024;28;20488;-59
2021/09/18 01:39:21;;;;;;;20.53;18.33;;;;;;;;;;5139325;28;20476;-55
2021/09/18 01:41:50;;;;;;;24.90;18.37;;;;;;;;;;5139292;28;20470;-52
2021/09/18 01:44:18;;;;;;;22.10;18.30;;;;;;;;;;5139402;28;20439;-56
2021/09/18 01:46:46;;;;;;;21.00;18.70;;;;;;;;;;5139572;28;20461;-60
2021/09/18 01:49:14;;;;;;;19.43;17.33;;;;;;;;;;5139093;28;20446;-56
2021/09/18 01:51:52;;;;;;;21.40;18.40;;;;;;;;;;5137624;28;20555;-57
2021/09/18 01:54:20;;;;;;;24.00;21.30;;;;;;;;;;5139492;28;20466;-56
2021/09/18 01:56:47;;;;;;;21.97;19.67;;;;;;;;;;5131446;28;20518;-55
2021/09/18 01:59:16;;;;;;;27.40;21.57;;;;;;;;;;5129331;28;20497;-52
2021/09/18 02:02:02;;;;;;;24.20;21.33;;;;;;;;;;5118047;28;20456;-52
2021/09/18 02:04:30;;;;;;;25.37;20.90;;;;;;;;;;5128907;28;20489;-59
2021/09/18 02:06:57;;;;;;;29.40;20.30;;;;;;;;;;5139204;28;20493;-53
2021/09/18 02:09:59;;;;;;;23.57;21.03;;;;;;;;;;5138822;28;20449;-59
2021/09/18 02:12:26;;;;;;;24.50;21.93;;;;;;;;;;5138670;28;20449;-58
2021/09/18 02:14:55;;;;;;;27.47;22.10;;;;;;;;;;5139060;28;20430;-58
2021/09/18 02:17:28;;;;;;;28.97;22.97;;;;;;;;;;5138797;28;20458;-60
2021/09/18 02:19:56;;;;;;;27.73;20.30;;;;;;;;;;5139122;28;20438;-59
2021/09/18 02:22:23;;;;;;;24.47;20.73;;;;;;;;;;5138782;28;20486;-54
2021/09/18 02:25:13;;;;;;;24.33;20.70;;;;;;;;;;5138474;28;20465;-58
2021/09/18 02:27:41;;;;;;;27.00;22.27;;;;;;;;;;5138520;28;20462;-56
2021/09/18 02:30:13;;;;;;;24.83;20.53;;;;;;;;;;5138581;28;20454;-58
2021/09/18 02:32:46;;;;;;;24.43;20.77;;;;;;;;;;5138523;28;20458;-56
2021/09/18 02:35:14;;;;;;;26.77;20.87;;;;;;;;;;5136138;28;20494;-57
2021/09/18 02:37:45;;;;;;;23.90;21.17;;;;;;;;;;5135232;28;20454;-54
2021/09/18 02:40:21;;;;;;;26.43;21.60;;;;;;;;;;5138217;28;20462;-57
2021/09/18 02:42:49;;;;;;;28.40;21.40;;;;;;;;;;5138146;28;20525;-54
2021/09/18 02:45:18;;;;;;;24.67;21.73;;;;;;;;;;5135995;28;20460;-55
2021/09/18 02:47:50;;;;;;;25.00;22.43;;;;;;;;;;5135955;28;20482;-53
2021/09/18 02:50:18;;;;;;;24.27;21.30;;;;;;;;;;5134124;28;20456;-57
2021/09/18 02:52:46;;;;;;;26.53;23.57;;;;;;;;;;5138038;28;20454;-54
2021/09/18 02:58:17;;;;;;;27.23;20.80;;;;;;;;;;5121368;28;20473;-59
2021/09/18 03:00:48;;;;;;;28.13;23.70;;;;;;;;;;5117015;28;20487;-61
2021/09/18 03:03:18;;;;;;;26.50;21.90;;;;;;;;;;5117623;28;20443;-58
2021/09/18 03:05:45;;;;;;;25.10;22.43;;;;;;;;;;5117558;28;20459;-53
2021/09/18 03:08:12;;;;;;;25.70;21.83;;;;;;;;;;5117573;28;20528;-54
2021/09/18 03:13:43;;;;;;;25.63;22.93;;;;;;;;;;5116307;28;20405;-56
2021/09/18 03:16:12;;;;;;;24.07;21.63;;;;;;;;;;5137393;28;20442;-54
2021/09/18 03:18:39;;;;;;;24.27;21.73;;;;;;;;;;5137393;28;20484;-58
2021/09/18 03:21:09;;;;;;;24.70;21.60;;;;;;;;;;5137605;28;20486;-57
2021/09/18 03:23:36;;;;;;;25.53;22.47;;;;;;;;;;5136643;28;20458;-57
2021/09/18 03:26:04;;;;;;;23.60;20.90;;;;;;;;;;5137434;28;20476;-59
2021/09/18 03:28:37;;;;;;;22.63;20.20;;;;;;;;;;5136211;28;20457;-62
2021/09/18 03:31:04;;;;;;;22.13;19.73;;;;;;;;;;5117149;28;20453;-60
2021/09/18 03:33:34;;;;;;;25.50;20.73;;;;;;;;;;5116882;28;20451;-53
2021/09/18 03:39:04;;;;;;;22.20;17.70;;;;;;;;;;5116660;28;20417;-61
2021/09/18 03:41:32;;;;;;;27.27;21.60;;;;;;;;;;5116293;28;20479;-55
2021/09/18 03:44:18;;;;;;;22.87;20.40;;;;;;;;;;5116263;28;20459;-57
2021/09/18 03:46:53;;;;;;;22.70;19.40;;;;;;;;;;5117485;28;20460;-58
2021/09/18 03:49:29;;;;;;;21.23;19.00;;;;;;;;;;5100579;28;20461;-58
2021/09/18 03:52:20;;;;;;;21.20;18.40;;;;;;;;;;5116823;28;20682;-56
2021/09/18 03:54:47;;;;;;;24.53;20.27;;;;;;;;;;5116397;28;20439;-60
2021/09/18 03:57:15;;;;;;;21.53;17.73;;;;;;;;;;5131085;28;20458;-56
2021/09/18 03:59:47;;;;;;;29.50;19.43;;;;;;;;;;5132462;28;20454;-60
2021/09/18 04:02:27;;;;;;;23.17;20.67;;;;;;;;;;5118193;28;20487;-57
2021/09/18 04:04:56;;;;;;;24.43;21.00;;;;;;;;;;5126449;28;20461;-57
2021/09/18 04:07:30;;;;;;;25.07;21.87;;;;;;;;;;5137217;28;20446;-54
2021/09/18 04:09:57;;;;;;;24.97;21.10;;;;;;;;;;5137102;28;20513;-56
2021/09/18 04:12:24;;;;;;;24.70;20.57;;;;;;;;;;5137011;28;20549;-60
2021/09/18 04:14:57;;;;;;;30.07;19.67;;;;;;;;;;5131276;28;20539;-57
2021/09/18 04:17:25;;;;;;;25.77;21.10;;;;;;;;;;5137209;28;20477;-52
2021/09/18 04:20:11;;;;;;;24.33;21.13;;;;;;;;;;5136608;28;20466;-54
2021/09/18 04:22:39;;;;;;;23.03;19.40;;;;;;;;;;5136517;28;20543;-60
2021/09/18 04:25:08;;;;;;;22.97;19.60;;;;;;;;;;5140968;28;20438;-58
2021/09/18 04:27:39;;;;;;;23.53;20.00;;;;;;;;;;5140701;28;20446;-59
2021/09/18 04:30:06;;;;;;;22.70;20.27;;;;;;;;;;5140715;28;20434;-58
2021/09/18 04:32:34;;;;;;;23.83;20.30;;;;;;;;;;5140480;28;20480;-58
2021/09/18 04:35:02;;;;;;;26.27;20.37;;;;;;;;;;5140734;28;20492;-51
2021/09/18 04:37:31;;;;;;;30.30;19.27;;;;;;;;;;5140855;28;20458;-59
2021/09/18 04:40:00;;;;;;;24.07;21.53;;;;;;;;;;5139962;28;20485;-58
2021/09/18 04:42:37;;;;;;;23.37;20.20;;;;;;;;;;5140123;28;20477;-54
2021/09/18 04:45:05;;;;;;;27.20;18.90;;;;;;;;;;5140887;28;20441;-56
2021/09/18 04:47:32;;;;;;;26.80;20.20;;;;;;;;;;5140610;28;20517;-56
2021/09/18 04:49:59;;;;;;;23.17;20.67;;;;;;;;;;5140158;28;20654;-61
2021/09/18 04:52:27;;;;;;;26.00;21.83;;;;;;;;;;5140509;28;20498;-59
2021/09/18 04:55:12;;;;;;;27.60;21.10;;;;;;;;;;5140208;28;20503;-55
2021/09/18 04:57:39;;;;;;;25.87;21.63;;;;;;;;;;5139948;28;20454;-55
2021/09/18 05:00:08;;;;;;;22.97;20.40;;;;;;;;;;5139832;28;20454;-60
2021/09/18 05:02:35;;;;;;;26.60;21.43;;;;;;;;;;5140032;28;20597;-56
2021/09/18 05:05:03;;;;;;;23.93;21.40;;;;;;;;;;5140085;28;20454;-57
2021/09/18 05:07:32;;;;;;;22.70;19.83;;;;;;;;;;5140247;28;20484;-60
2021/09/18 05:09:59;;;;;;;22.63;19.93;;;;;;;;;;5139508;28;20639;-60
2021/09/18 05:12:28;;;;;;;26.00;21.30;;;;;;;;;;5139946;28;20469;-53
2021/09/18 05:14:56;;;;;;;21.93;19.00;;;;;;;;;;5137140;28;20500;-55
2021/09/18 05:17:23;;;;;;;24.87;22.13;;;;;;;;;;5139603;28;20495;-57
2021/09/18 05:20:04;;;;;;;29.13;22.73;;;;;;;;;;5139586;28;20785;-61
2021/09/18 05:22:31;;;;;;;27.53;21.90;;;;;;;;;;5139960;28;20511;-57
2021/09/18 05:24:59;;;;;;;26.47;21.50;;;;;;;;;;5131453;28;20469;-58
2021/09/18 05:28:04;;;;;;;21.07;18.87;;;;;;;;;;5119298;28;20472;-53
2021/09/18 05:30:34;;;;;;;27.83;21.07;;;;;;;;;;5101198;28;20472;-60
2021/09/18 05:33:01;;;;;;;21.97;19.57;;;;;;;;;;5135004;28;20458;-55
2021/09/18 05:35:28;;;;;;;24.17;20.90;;;;;;;;;;5138189;28;20476;-55
2021/09/18 05:37:56;;;;;;;23.60;19.97;;;;;;;;;;5139452;28;20438;-56
2021/09/18 05:40:26;;;;;;;22.20;19.20;;;;;;;;;;5139593;28;20430;-57
2021/09/18 05:42:54;;;;;;;23.10;19.00;;;;;;;;;;5139013;28;20478;-56
2021/09/18 05:45:22;;;;;;;25.27;20.70;;;;;;;;;;5138737;28;20442;-59
2021/09/18 05:47:50;;;;;;;23.70;18.80;;;;;;;;;;5139375;28;20494;-52
2021/09/18 05:50:18;;;;;;;27.13;19.80;;;;;;;;;;5138256;28;20437;-55
2021/09/18 05:52:45;;;;;;;21.37;19.07;;;;;;;;;;5138827;28;20492;-57
2021/09/18 05:55:14;;;;;;;25.73;19.90;;;;;;;;;;5138600;28;20513;-61
2021/09/18 05:57:42;;;;;;;28.20;19.70;;;;;;;;;;5135813;28;20467;-58
2021/09/18 06:00:10;;;;;;;30.63;19.73;;;;;;;;;;5138765;28;20488;-56
2021/09/18 06:02:55;;;;;;;23.30;18.17;;;;;;;;;;5138557;28;20502;-58
2021/09/18 06:05:24;;;;;;;21.50;19.20;;;;;;;;;;5136209;28;20519;-55
2021/09/18 06:07:51;;;;;;;25.53;20.47;;;;;;;;;;5138773;28;20480;-56
2021/09/18 06:10:55;;;;;;;28.37;20.73;;;;;;;;;;5137481;28;20510;-61
2021/09/18 06:13:29;;;;;;;26.17;21.20;;;;;;;;;;5136945;28;20482;-60
2021/09/18 06:16:12;;;;;;;30.33;20.87;;;;;;;;;;5138839;28;20521;-61
2021/09/18 06:18:41;;;;;;;29.23;22.67;;;;;;;;;;5129122;28;20450;-53
2021/09/18 06:21:09;;;;;;;25.20;21.70;;;;;;;;;;5126985;28;20440;-60
2021/09/18 06:26:40;;;;;;;29.23;22.13;;;;;;;;;;5137572;28;20438;-55
2021/09/18 06:29:08;;;;;;;24.13;20.90;;;;;;;;;;5128978;28;20499;-53
2021/09/18 06:32:11;;;;;;;25.93;22.40;;;;;;;;;;5137775;28;20454;-61
2021/09/18 06:34:40;;;;;;;23.60;19.53;;;;;;;;;;5116594;28;20819;-60
2021/09/18 06:37:10;;;;;;;23.07;18.43;;;;;;;;;;5125713;28;20476;-59
2021/09/18 06:39:37;;;;;;;27.77;20.50;;;;;;;;;;5136827;28;20469;-53
2021/09/18 06:42:05;;;;;;;31.90;20.77;;;;;;;;;;5125405;28;20517;-52
2021/09/18 06:44:32;;;;;;;26.43;21.63;;;;;;;;;;5136866;28;20453;-54
2021/09/18 06:47:06;;;;;;;28.90;20.20;;;;;;;;;;5121553;28;20418;-53
2021/09/18 06:49:33;;;;;;;23.17;19.77;;;;;;;;;;5137103;28;20467;-59
2021/09/18 06:52:08;;;;;;;27.40;20.47;;;;;;;;;;5137035;28;20454;-59
2021/09/18 06:54:39;;;;;;;21.93;19.57;;;;;;;;;;5136545;28;20480;-59
2021/09/18 06:57:11;;;;;;;24.03;18.10;;;;;;;;;;5136606;28;20485;-58
2021/09/18 06:59:38;;;;;;;22.63;19.27;;;;;;;;;;5136874;28;20430;-55
2021/09/18 07:02:06;;;;;;;23.27;17.80;;;;;;;;;;5124600;28;20471;-60
2021/09/18 07:04:35;;;;;;;20.20;17.90;;;;;;;;;;5116442;28;20443;-55
2021/09/18 07:07:10;;;;;;;19.07;16.03;;;;;;;;;;5116225;28;20462;-54
2021/09/18 07:09:39;;;;;;;23.60;16.07;;;;;;;;;;5116926;28;20455;-56
2021/09/18 07:12:07;;;;;;;21.80;15.43;;;;;;;;;;5119476;28;20474;-56
2021/09/18 07:14:35;;;;;;;21.07;15.77;;;;;;;;;;5117085;28;20443;-57
2021/09/18 07:17:10;;;;;;;21.40;16.67;;;;;;;;;;5115699;28;20427;-56
2021/09/18 07:19:38;;;;;;;17.90;15.23;;;;;;;;;;5114305;28;20536;-61
2021/09/18 07:22:17;;;;;;;22.57;16.50;;;;;;;;;;5127833;28;20481;-60
2021/09/18 07:24:47;;;;;;;16.87;14.00;;;;;;;;;;5136736;28;20446;-60
2021/09/18 07:27:43;;;;;;;16.93;14.93;;;;;;;;;;5136715;28;20443;-57
2021/09/18 07:30:20;;;;;;;19.23;16.53;;;;;;;;;;5137197;28;20454;-56
2021/09/18 07:32:51;;;;;;;22.00;15.03;;;;;;;;;;5136698;28;20446;-56
2021/09/18 07:35:20;;;;;;;20.60;15.23;;;;;;;;;;5098947;28;20486;-58
2021/09/18 07:38:03;;;;;;;16.97;14.57;;;;;;;;;;5130700;28;20450;-61
2021/09/18 07:40:30;;;;;;;17.40;15.37;;;;;;;;;;5135304;28;20449;-56
2021/09/18 07:43:03;;;;;;;20.20;14.87;;;;;;;;;;5135738;28;20486;-61
2021/09/18 07:45:42;;;;;;;21.47;15.77;;;;;;;;;;5136421;28;20485;-60
2021/09/18 07:48:11;;;;;;;17.77;14.47;;;;;;;;;;5136215;28;20455;-59
2021/09/18 07:50:41;;;;;;;27.63;17.90;;;;;;;;;;5134905;28;20485;-57
2021/09/18 07:53:11;;;;;;;18.10;15.40;;;;;;;;;;5134408;28;20462;-53
2021/09/18 07:55:39;;;;;;;17.50;15.67;;;;;;;;;;5134862;28;20480;-54
2021/09/18 07:58:08;;;;;;;17.17;14.77;;;;;;;;;;5135086;28;20454;-61
2021/09/18 08:00:36;;;;;;;15.53;13.63;;;;;;;;;;5134310;28;20733;-62
2021/09/18 08:03:03;;;;;;;15.77;13.63;;;;;;;;;;5134358;28;20537;-59
2021/09/18 08:05:57;;;;;;;17.03;14.00;;;;;;;;;;5134228;28;20480;-54
2021/09/18 08:08:27;;;;;;;20.83;13.10;;;;;;;;;;5117068;28;20439;-51
2021/09/18 08:10:55;;;;;;;25.00;12.77;;;;;;;;;;5115200;28;20469;-62
2021/09/18 08:13:35;;;;;;;17.53;12.67;;;;;;;;;;5100701;28;20538;-59
2021/09/18 08:16:02;;;;;;;15.73;14.03;;;;;;;;;;5095796;28;20861;-59
2021/09/18 08:18:29;;;;;;;21.13;16.10;;;;;;;;;;5095527;28;20466;-57
2021/09/18 08:21:03;;;;;;;16.97;15.17;;;;;;;;;;5095642;28;20444;-60
2021/09/18 08:23:32;;;;;;;16.47;14.00;;;;;;;;;;5095058;28;20509;-62
2021/09/18 08:26:07;;;;;;;17.10;14.37;;;;;;;;;;5094631;28;20440;-55
2021/09/18 08:28:34;;;;;;;15.30;13.70;;;;;;;;;;5108216;28;20459;-64
2021/09/18 08:31:13;;;;;;;18.20;14.80;;;;;;;;;;5115709;28;20481;-59
2021/09/18 08:34:19;;;;;;;15.60;14.00;;;;;;;;;;5116172;28;20447;-59
2021/09/18 08:36:48;;;;;;;16.93;15.13;;;;;;;;;;5113365;28;20481;-59
2021/09/18 08:39:26;;;;;;;15.80;13.50;;;;;;;;;;5114985;28;20483;-56
2021/09/18 08:42:02;;;;;;;18.80;14.77;;;;;;;;;;5115476;28;20459;-56
2021/09/18 08:44:38;;;;;;;16.53;14.63;;;;;;;;;;5129464;28;20481;-58
2021/09/18 08:47:06;;;;;;;18.53;14.83;;;;;;;;;;5128766;28;20447;-54
2021/09/18 08:49:34;;;;;;;19.73;14.50;;;;;;;;;;5114490;28;20510;-59
2021/09/18 08:52:04;;;;;;;23.47;19.53;;;;;;;;;;5133594;28;20482;-56
2021/09/18 08:54:40;;;;;;;23.40;17.70;;;;;;;;;;5135283;28;20446;-57
2021/09/18 08:57:07;;;;;;;18.50;15.43;;;;;;;;;;5135306;28;20538;-61
2021/09/18 08:59:37;;;;;;;20.53;14.20;;;;;;;;;;5135246;28;20430;-60
2021/09/18 09:05:12;;;;;;;16.93;15.13;;;;;;;;;;5115350;28;20422;-61
2021/09/18 09:07:39;;;;;;;17.73;15.80;;;;;;;;;;5113200;28;20507;-59
2021/09/18 09:10:16;;;;;;;21.50;19.23;;;;;;;;;;5114465;28;20442;-55
2021/09/18 09:12:46;;;;;;;22.13;18.20;;;;;;;;;;5117520;28;20438;-57
2021/09/18 09:15:21;;;;;;;21.97;18.43;;;;;;;;;;5117276;28;20479;-59
2021/09/18 09:17:52;;;;;;;24.70;19.10;;;;;;;;;;5117376;28;20447;-56
2021/09/18 09:20:27;;;;;;;23.53;19.47;;;;;;;;;;5099670;28;20458;-59
2021/09/18 09:25:59;;;;;;;27.07;23.07;;;;;;;;;;5117047;28;20410;-54
2021/09/18 09:28:32;;;;;;;27.93;22.70;;;;;;;;;;5117756;28;20439;-57
2021/09/18 09:31:10;;;;;;;26.87;21.73;;;;;;;;;;5117446;28;20427;-60
2021/09/18 09:33:41;;;;;;;27.67;22.90;;;;;;;;;;5116736;28;20446;-55
2021/09/18 09:36:29;;;;;;;33.17;26.23;;;;;;;;;;5118330;28;20514;-57
2021/09/18 09:38:58;;;;;;;22.20;19.80;;;;;;;;;;5116924;28;20516;-58
2021/09/18 09:41:34;;;;;;;40.97;27.67;;;;;;;;;;5116281;28;20473;-56
2021/09/18 09:44:03;;;;;;;34.23;24.27;;;;;;;;;;5123924;28;20473;-55
2021/09/18 09:46:31;;;;;;;34.60;27.90;;;;;;;;;;5121559;28;20489;-58
2021/09/18 09:49:08;;;;;;;33.50;26.50;;;;;;;;;;5116920;28;20625;-58
2021/09/18 09:51:36;;;;;;;34.77;27.80;;;;;;;;;;5117569;28;20668;-58
2021/09/18 09:54:18;;;;;;;32.33;25.77;;;;;;;;;;5117233;28;20443;-57
2021/09/18 09:56:49;;;;;;;34.50;26.60;;;;;;;;;;5116748;28;20451;-60
2021/09/18 09:59:32;;;;;;;35.83;28.20;;;;;;;;;;5131101;28;20601;-60
2021/09/18 10:02:27;;;;;;;34.97;28.33;;;;;;;;;;5114136;28;20453;-58
2021/09/18 10:04:56;;;;;;;41.20;31.13;;;;;;;;;;5117857;28;20444;-59
2021/09/18 10:07:34;;;;;;;37.97;29.80;;;;;;;;;;5116475;28;20478;-60
2021/09/18 10:10:02;;;;;;;43.10;33.60;;;;;;;;;;5117600;28;20515;-62
2021/09/18 10:12:31;;;;;;;38.50;30.87;;;;;;;;;;5116704;28;20451;-56
2021/09/18 10:18:03;;;;;;;37.80;31.40;;;;;;;;;;5119915;28;20444;-60
2021/09/18 10:23:21;;;;;;;40.60;34.87;;;;;;;;;;5121108;28;20458;-56
2021/09/18 10:25:50;;;;;;;39.47;30.33;;;;;;;;;;5116828;28;20444;-58
2021/09/18 10:28:25;;;;;;;34.57;26.70;;;;;;;;;;5116056;28;20489;-61
2021/09/18 10:30:54;;;;;;;33.93;24.80;;;;;;;;;;5119949;28;20462;-59
2021/09/18 10:33:49;;;;;;;29.73;24.90;;;;;;;;;;5134606;28;20455;-53
2021/09/18 10:36:18;;;;;;;28.30;22.03;;;;;;;;;;5136707;28;20459;-60
2021/09/18 10:39:10;;;;;;;28.63;19.83;;;;;;;;;;5130869;28;20655;-59
2021/09/18 10:41:53;;;;;;;27.10;20.83;;;;;;;;;;5120641;28;20539;-57
2021/09/18 10:44:22;;;;;;;22.27;16.83;;;;;;;;;;5134139;28;20725;-56
2021/09/18 10:46:52;;;;;;;26.90;22.23;;;;;;;;;;5136551;28;20439;-54
2021/09/18 10:49:34;;;;;;;24.07;20.40;;;;;;;;;;5136739;28;20965;-53
2021/09/18 10:52:29;;;;;;;27.40;22.93;;;;;;;;;;5136741;28;20438;-48
2021/09/18 10:55:11;;;;;;;28.30;25.37;;;;;;;;;;5102881;28;20463;-52
2021/09/18 10:58:08;;;;;;;22.57;18.27;;;;;;;;;;5125001;28;20458;-53
2021/09/18 11:00:50;;;;;;;17.90;14.77;;;;;;;;;;5080801;28;20487;-59
2021/09/18 11:03:40;;;;;;;20.87;16.03;;;;;;;;;;5101004;28;20526;-55
2021/09/18 11:06:08;;;;;;;16.40;14.20;;;;;;;;;;5095641;28;20468;-59
2021/09/18 11:08:37;;;;;;;15.10;12.57;;;;;;;;;;5094528;28;20460;-57
2021/09/18 11:11:13;;;;;;;19.10;15.80;;;;;;;;;;5095280;28;20448;-57
2021/09/18 11:13:42;;;;;;;17.77;13.47;;;;;;;;;;5094571;28;20459;-58
2021/09/18 11:16:19;;;;;;;22.07;18.23;;;;;;;;;;5095064;28;20538;-53
2021/09/18 11:19:21;;;;;;;19.93;16.80;;;;;;;;;;5095245;28;20459;-52
2021/09/18 11:21:51;;;;;;;14.40;11.53;;;;;;;;;;5096025;28;20451;-57
2021/09/18 11:24:23;;;;;;;17.13;14.03;;;;;;;;;;5095653;28;20538;-53
2021/09/18 11:26:57;;;;;;;13.70;10.90;;;;;;;;;;5106959;28;20511;-57
2021/09/18 11:29:34;;;;;;;14.00;10.63;;;;;;;;;;5108048;28;20447;-60
2021/09/18 11:32:05;;;;;;;14.10;11.33;;;;;;;;;;5100857;28;20477;-58
2021/09/18 11:35:09;;;;;;;14.93;11.80;;;;;;;;;;5094639;28;20436;-55
2021/09/18 11:37:41;;;;;;;16.17;11.50;;;;;;;;;;5095009;28;20490;-57
2021/09/18 11:40:30;;;;;;;11.60;10.40;;;;;;;;;;5095146;28;20420;-54
2021/09/18 11:42:58;;;;;;;14.93;10.87;;;;;;;;;;5094521;28;20626;-58
2021/09/18 11:51:00;;;;;;;14.97;10.90;;;;;;;;;;5131057;28;20489;-57
2021/09/18 11:53:27;;;;;;;15.40;11.27;;;;;;;;;;5136044;28;20446;-59
2021/09/18 11:56:15;;;;;;;12.93;11.20;;;;;;;;;;5135305;28;20434;-59
2021/09/18 11:58:50;;;;;;;13.77;11.10;;;;;;;;;;5135976;28;20442;-60
2021/09/18 12:01:19;;;;;;;9.67;8.50;;;;;;;;;;5136170;28;20442;-55
2021/09/18 12:03:49;;;;;;;9.90;8.60;;;;;;;;;;5135570;28;20493;-59
2021/09/18 12:06:19;;;;;;;9.50;8.40;;;;;;;;;;5135434;28;20446;-58
2021/09/18 12:08:55;;;;;;;10.53;9.00;;;;;;;;;;5120723;28;20447;-58
2021/09/18 12:11:22;;;;;;;10.23;9.13;;;;;;;;;;5114942;28;20449;-52
2021/09/18 12:13:53;;;;;;;14.93;10.93;;;;;;;;;;5114294;28;20500;-61
2021/09/18 12:16:21;;;;;;;11.03;9.20;;;;;;;;;;5116428;28;20562;-59
2021/09/18 12:18:49;;;;;;;12.40;9.83;;;;;;;;;;5131317;28;20459;-56
2021/09/18 12:21:44;;;;;;;14.00;10.73;;;;;;;;;;5132439;28;20462;-55
2021/09/18 12:24:13;;;;;;;14.20;9.43;;;;;;;;;;5146529;28;20484;-60
2021/09/18 12:26:41;;;;;;;13.47;10.17;;;;;;;;;;5155237;28;20449;-58
2021/09/18 12:32:13;;;;;;;8.80;7.90;;;;;;;;;;5133204;28;20448;-54
2021/09/18 12:34:40;;;;;;;9.63;8.17;;;;;;;;;;5135056;28;20497;-58
2021/09/18 12:37:39;;;;;;;11.30;8.60;;;;;;;;;;5128716;28;20439;-58
2021/09/18 12:40:13;;;;;;;8.73;7.70;;;;;;;;;;5126524;28;20517;-60
2021/09/18 12:42:42;;;;;;;10.87;7.57;;;;;;;;;;5134740;28;20458;-58
2021/09/18 12:45:39;;;;;;;12.90;8.03;;;;;;;;;;5136773;28;20507;-57
2021/09/18 12:48:17;;;;;;;9.83;7.60;;;;;;;;;;5129428;28;20497;-56
2021/09/18 12:51:06;;;;;;;8.47;7.67;;;;;;;;;;5137567;28;20493;-60
2021/09/18 12:53:52;;;;;;;11.37;8.83;;;;;;;;;;5138603;28;20495;-61
2021/09/18 12:56:26;;;;;;;11.20;8.77;;;;;;;;;;5138347;28;20465;-58
2021/09/18 12:59:09;;;;;;;9.97;8.60;;;;;;;;;;5137690;28;20446;-57
2021/09/18 13:01:38;;;;;;;8.90;7.47;;;;;;;;;;5134092;28;20476;-56
2021/09/18 13:04:24;;;;;;;10.60;7.83;;;;;;;;;;5139095;28;20496;-57
2021/09/18 13:07:06;;;;;;;10.13;8.73;;;;;;;;;;5119303;28;20444;-57
2021/09/18 13:09:34;;;;;;;11.00;8.73;;;;;;;;;;5135654;28;20454;-59
2021/09/18 13:12:11;;;;;;;11.57;9.30;;;;;;;;;;5137629;28;20499;-56
2021/09/18 13:15:10;;;;;;;11.70;7.80;;;;;;;;;;5126085;28;20488;-58
2021/09/18 13:17:37;;;;;;;10.57;9.47;;;;;;;;;;5117342;28;20544;-51
2021/09/18 13:20:07;;;;;;;10.27;8.47;;;;;;;;;;5117957;28;20518;-60
2021/09/18 13:22:37;;;;;;;11.80;8.00;;;;;;;;;;5114988;28;20467;-56
2021/09/18 13:25:22;;;;;;;11.03;9.07;;;;;;;;;;5113097;28;20528;-61
2021/09/18 13:27:54;;;;;;;9.27;7.73;;;;;;;;;;5113374;28;20431;-61
2021/09/18 13:30:44;;;;;;;8.30;7.03;;;;;;;;;;5127582;28;20451;-60
2021/09/18 13:33:11;;;;;;;9.97;8.30;;;;;;;;;;5114659;28;20455;-52
2021/09/18 13:35:40;;;;;;;10.47;8.53;;;;;;;;;;5114023;28;20458;-58
2021/09/18 13:41:12;;;;;;;10.37;8.30;;;;;;;;;;5108876;28;20479;-59
2021/09/18 13:43:40;;;;;;;11.80;9.70;;;;;;;;;;5115779;28;20470;-55
2021/09/18 13:46:09;;;;;;;10.27;9.23;;;;;;;;;;5113749;28;20523;-58
2021/09/18 13:48:44;;;;;;;14.07;9.70;;;;;;;;;;5116104;28;20463;-58
2021/09/18 13:51:12;;;;;;;11.30;8.80;;;;;;;;;;5117363;28;20453;-53
2021/09/18 13:53:40;;;;;;;20.93;9.30;;;;;;;;;;5111993;28;20515;-58
2021/09/18 13:56:09;;;;;;;14.23;10.27;;;;;;;;;;5116277;28;20450;-53
2021/09/18 13:59:08;;;;;;;11.50;8.80;;;;;;;;;;5116560;27;20455;-56
2021/09/18 14:01:38;;;;;;;9.80;8.87;;;;;;;;;;5115190;28;20470;-59
2021/09/18 14:04:11;;;;;;;12.97;9.27;;;;;;;;;;5116233;28;20746;-57
2021/09/18 14:06:51;;;;;;;11.60;9.07;;;;;;;;;;5115616;28;20451;-55
2021/09/18 14:09:22;;;;;;;11.13;10.03;;;;;;;;;;5102217;28;20460;-55
2021/09/18 14:11:57;;;;;;;15.33;11.90;;;;;;;;;;5118239;28;20495;-51
2021/09/18 14:14:35;;;;;;;13.70;9.80;;;;;;;;;;5118703;28;20443;-52
2021/09/18 14:17:07;;;;;;;11.23;8.90;;;;;;;;;;5118746;28;20458;-59
2021/09/18 14:20:03;;;;;;;12.37;10.00;;;;;;;;;;5118129;28;20444;-61
2021/09/18 14:22:37;;;;;;;12.30;10.03;;;;;;;;;;5103674;28;20482;-53
2021/09/18 14:25:08;;;;;;;12.27;10.00;;;;;;;;;;5117725;28;20534;-55
2021/09/18 14:27:36;;;;;;;11.83;10.50;;;;;;;;;;5117545;28;20442;-57
2021/09/18 14:30:08;;;;;;;15.50;11.23;;;;;;;;;;5117307;28;20528;-61
2021/09/18 14:35:46;;;;;;;12.40;10.63;;;;;;;;;;5109511;28;20757;-57
2021/09/18 14:40:59;;;;;;;12.00;10.40;;;;;;;;;;5100922;28;20461;-61
2021/09/18 14:48:56;;;;;;;11.60;10.00;;;;;;;;;;5115962;28;20523;-61
2021/09/18 14:51:40;;;;;;;10.17;9.17;;;;;;;;;;5115968;28;20447;-57
2021/09/18 14:54:07;;;;;;;13.03;8.10;;;;;;;;;;5114058;28;20565;-57
2021/09/18 14:56:41;;;;;;;14.27;8.47;;;;;;;;;;5116370;28;20519;-54
2021/09/18 14:59:12;;;;;;;9.10;6.77;;;;;;;;;;5117081;28;20450;-56
2021/09/18 15:01:46;;;;;;;11.23;7.70;;;;;;;;;;5110922;28;20493;-59
2021/09/18 15:04:19;;;;;;;8.93;5.77;;;;;;;;;;5112740;28;20465;-56
2021/09/18 15:06:49;;;;;;;7.27;5.73;;;;;;;;;;5107933;28;20427;-58
2021/09/18 15:12:32;;;;;;;7.20;6.03;;;;;;;;;;5116260;28;20437;-56
2021/09/18 15:15:00;;;;;;;7.40;5.37;;;;;;;;;;5115971;28;20455;-60
2021/09/18 15:17:29;;;;;;;6.90;5.80;;;;;;;;;;5116859;28;20518;-64
2021/09/18 15:20:10;;;;;;;7.60;5.93;;;;;;;;;;5116300;28;20450;-56
2021/09/18 15:22:45;;;;;;;10.43;6.43;;;;;;;;;;5115166;28;20550;-56
2021/09/18 15:25:18;;;;;;;7.20;6.37;;;;;;;;;;5115917;28;20513;-62
2021/09/18 15:30:57;;;;;;;6.80;6.10;;;;;;;;;;5133479;27;20513;-58
2021/09/18 15:33:28;;;;;;;10.40;6.80;;;;;;;;;;5158005;27;20579;-59
2021/09/18 15:36:18;;;;;;;8.40;7.00;;;;;;;;;;5157960;27;20449;-58
2021/09/18 15:38:50;;;;;;;8.50;6.70;;;;;;;;;;5158209;27;20477;-52
2021/09/18 15:44:23;;;;;;;8.33;7.47;;;;;;;;;;5158534;27;20432;-55
2021/09/18 15:46:50;;;;;;;11.87;8.33;;;;;;;;;;5157799;27;20445;-54
2021/09/18 15:49:18;;;;;;;8.83;7.93;;;;;;;;;;5157164;27;20515;-58
2021/09/18 15:52:14;;;;;;;9.70;7.70;;;;;;;;;;5157827;27;20490;-56
2021/09/18 15:54:43;;;;;;;9.33;7.20;;;;;;;;;;5157360;27;20492;-54
2021/09/18 15:57:11;;;;;;;9.27;7.17;;;;;;;;;;5157102;27;20460;-56